Columbia Metropolitan Airport
KCAE : now visible

Airfield :











YOU CAN JOIN US ON...

 
LOGIN :

Register | Disclaimer

   EN    FR    IT 

 









Legend :    VFR   Marginal VFR   IFR   Intensive IFR   Very Intensive IFR
Visi :
Ceiling :
>= 8 km
>= 3000ft
5 to 8 km
1000 to 3000 ft
1500m to 5 km
500 to 1000 ft
800 to 1500m
200 to 500 ft
< 800m
< 200 ft
Symbols :   Thunderstorms  Fog  Heavy snow  Heavy precipitations  Wind > 20 kt






- Airport Elevation : 236 ft
- IATA code : CAE


KCAE - Columbia Metropolitan

CURRENT METAR :
  • 261556Z 00000KT 10SM OVC012 17/13 A3016 RMK AO2 SLP210 T01720133

EXPIRED METARs :
  • 261456Z 06003KT 10SM OVC012 16/13 A3016 RMK AO2 SLP211 T01610128 53018
  • 261445Z 00000KT 10SM OVC010 17/13 A3016 RMK AO2 T01670128
  • 261356Z 02005KT 10SM OVC007 16/13 A3014 RMK AO2 SLP205 T01560128
  • 261326Z 36004KT 10SM BKN008 OVC011 15/13 A3014 RMK AO2 T01500128

TAF KCAE
Valid from the 26 at 16:00 until the 27 at 12:00 UTC


261543Z 2616/2712 05005KT P6SM BKN012 OVC040
FM262000 VRB04KT P6SM SCT015 BKN025
FM270200 00000KT P6SM SCT050
FM270900 00000KT 5SM BR SCT008
KZJX FIR / North America



MET'MAP, your aeronautical weather chart ! - Copyright ORBIFLY December 2007 - Disclaimer

ORBIFLY MET'MAP TEAM :

Programming & Development : Alexandra Zaïnal
Concept & original design : Baudouin d'Aumeries
Assistance for programming : Marc-Olivier Méhu
Technical & hardware support : Manuel Goepfert

Contact : metmap@orbifly.com




SOURCES & CREDITS :

   NOAA       Earth
Advisory